Weather at Alton Bay Seaplane Base

Public forecast

Using degrees Fahrenheit for public forecast. Weather courtesy of forecast.io.

Closest aviation weather report (METAR) to Alton Bay Seaplane Base

Closest report is Laconia Municipal Airport, 9.8 nm (18.1 km) NW. Retrieved 2020/10/28 04:56 UTC (58 minutes ago):

KLCI 280456Z AUTO 00000KT 10SM OVC046 04/M01 A3016 RMK AO2 SLP217 T00391011 400940039

Closest aviation forecast (TAF) to Alton Bay Seaplane Base

Closest forecast is Concord Municipal Airport, 20.2 nm (37.3 km) SW. Retrieved 2020-10-28 00:22 UTC (6 hours ago):

TAF KCON 272320Z 2800/2824 33005KT P6SM FEW080 OVC100 FM280700 00000KT P6SM -DZ BKN025 OVC050 FM280900 VRB03KT 4SM -RA BR OVC010 FM281500 15002KT 2SM BR OVC007